NH16 weather

Brookline Airport
Brookline, New Hampshire, United States

Public forecast

Using degrees Fahrenheit for public forecast. Weather courtesy of forecast.io.

Closest aviation weather report (METAR) to Brookline Airport

Report is more than 6 hours old.

Closest report is Boire Field, 8.8 nm (16.4 km) ENE. Retrieved 2020/08/05 23:56 UTC (1 day ago):

KASH 062356Z 00000KT 10SM CLR 24/13 A3010 RMK AO2 SLP197 T02440133 10283 20244 53007

Closest aviation forecast (TAF) to Brookline Airport

Closest forecast is Manchester-Boston Regional Airport, 16.6 nm (30.7 km) NE. Retrieved 2020-08-07 00:22 UTC (25 minutes ago):

TAF KMHT 062320Z 0700/0724 VRB03KT P6SM FEW250 FM071700 13007KT P6SM OVC100